createdAt,value
2023-01-28T00:00:23.333Z,7.40
2023-01-28T00:01:23.313Z,7.40
2023-01-28T00:02:23.322Z,7.40
2023-01-28T00:03:23.389Z,7.50
2023-01-28T00:04:23.294Z,7.20
2023-01-28T00:05:23.277Z,7.60
2023-01-28T00:06:23.271Z,7.40
2023-01-28T00:07:23.257Z,7.60
2023-01-28T00:08:23.248Z,7.20
2023-01-28T00:09:23.241Z,7.30
2023-01-28T00:10:23.233Z,7.00
2023-01-28T00:11:23.219Z,7.40
2023-01-28T00:12:23.210Z,7.90
2023-01-28T00:13:23.214Z,7.70
2023-01-28T00:14:23.213Z,7.50
2023-01-28T00:15:23.195Z,7.80
2023-01-28T00:16:23.241Z,7.60
2023-01-28T00:17:23.162Z,7.20
2023-01-28T00:18:23.155Z,7.70
2023-01-28T00:19:23.150Z,7.70
2023-01-28T00:20:23.139Z,7.50
2023-01-28T00:21:23.134Z,8.40
2023-01-28T00:22:23.118Z,7.40
2023-01-28T00:23:23.112Z,7.90
2023-01-28T00:24:23.175Z,8.00
2023-01-28T00:25:23.091Z,8.20
2023-01-28T00:26:23.099Z,7.90
2023-01-28T00:27:23.077Z,8.30
2023-01-28T00:28:23.064Z,9.30
2023-01-28T00:29:23.049Z,8.70
2023-01-28T00:30:23.058Z,8.90
2023-01-28T00:31:23.094Z,8.80
2023-01-28T00:32:23.025Z,8.80
2023-01-28T00:33:23.010Z,8.70
2023-01-28T00:34:23.002Z,9.20
2023-01-28T00:35:23.444Z,8.70
2023-01-28T00:36:22.983Z,8.10
2023-01-28T00:37:22.981Z,8.00
2023-01-28T00:38:22.966Z,7.90
2023-01-28T00:39:22.965Z,8.00
2023-01-28T00:40:22.944Z,8.80
2023-01-28T00:41:22.934Z,8.70
2023-01-28T00:42:22.930Z,9.00
2023-01-28T00:43:22.931Z,8.80
2023-01-28T00:44:22.910Z,8.60
2023-01-28T00:45:22.899Z,8.60
2023-01-28T00:46:23.038Z,8.60
2023-01-28T00:47:22.877Z,8.50
2023-01-28T00:48:22.870Z,9.20
2023-01-28T00:49:22.858Z,9.30
2023-01-28T00:50:22.857Z,8.90
2023-01-28T00:51:22.844Z,8.90
2023-01-28T00:52:22.834Z,8.30
2023-01-28T00:53:22.824Z,8.70
2023-01-28T00:54:22.812Z,8.60
2023-01-28T00:55:22.799Z,8.80
2023-01-28T00:56:22.794Z,8.80
2023-01-28T00:57:22.781Z,8.60
2023-01-28T00:58:22.773Z,8.90
2023-01-28T00:59:22.764Z,8.30
2023-01-28T01:00:22.767Z,8.90
2023-01-28T01:01:22.783Z,9.00
2023-01-28T01:02:22.827Z,9.00
2023-01-28T01:03:22.724Z,9.00
2023-01-28T01:04:22.713Z,8.60
2023-01-28T01:05:22.710Z,9.00
2023-01-28T01:06:22.697Z,9.10
2023-01-28T01:07:22.683Z,9.00
2023-01-28T01:08:22.675Z,8.90
2023-01-28T01:09:22.669Z,8.70
2023-01-28T01:10:22.657Z,8.80
2023-01-28T01:11:22.652Z,8.80
2023-01-28T01:12:22.636Z,8.30
2023-01-28T01:13:22.634Z,8.30
2023-01-28T01:14:22.617Z,8.90
2023-01-28T01:15:22.606Z,8.90
2023-01-28T01:16:22.596Z,8.60
2023-01-28T01:17:22.581Z,8.80
2023-01-28T01:18:22.591Z,8.70
2023-01-28T01:19:22.569Z,8.40
2023-01-28T01:20:22.565Z,8.60
2023-01-28T01:21:22.546Z,8.70
2023-01-28T01:22:22.534Z,8.90
2023-01-28T01:23:22.525Z,8.60
2023-01-28T01:24:22.579Z,8.70
2023-01-28T01:25:22.507Z,8.60
2023-01-28T01:26:22.555Z,8.00
2023-01-28T01:27:22.495Z,8.40
2023-01-28T01:28:22.476Z,8.00
2023-01-28T01:29:22.464Z,8.50
2023-01-28T01:30:22.463Z,8.50
2023-01-28T01:31:22.788Z,7.80
2023-01-28T01:32:22.438Z,8.10
2023-01-28T01:33:22.424Z,7.70
2023-01-28T01:34:22.433Z,8.50
2023-01-28T01:35:22.407Z,8.10
2023-01-28T01:36:22.510Z,7.60
2023-01-28T01:37:22.387Z,8.40
2023-01-28T01:38:22.379Z,7.70
2023-01-28T01:39:22.367Z,7.50
2023-01-28T01:40:22.375Z,7.60
2023-01-28T01:41:22.352Z,7.60
2023-01-28T01:42:22.335Z,7.90
2023-01-28T01:43:22.326Z,7.60
2023-01-28T01:44:22.319Z,7.80
2023-01-28T01:45:22.309Z,7.70
2023-01-28T01:46:22.377Z,7.70
2023-01-28T01:47:22.284Z,7.50
2023-01-28T01:48:22.287Z,7.90
2023-01-28T01:49:22.285Z,7.40
2023-01-28T01:50:22.277Z,7.30
2023-01-28T01:51:22.251Z,7.80
2023-01-28T01:52:22.239Z,7.60
2023-01-28T01:53:22.229Z,7.30
2023-01-28T01:54:22.224Z,7.20
2023-01-28T01:55:22.207Z,7.00
2023-01-28T01:56:22.197Z,7.40
2023-01-28T01:57:22.194Z,7.40
2023-01-28T01:58:22.175Z,7.10
2023-01-28T01:59:22.169Z,7.40
2023-01-28T02:00:22.164Z,7.20
2023-01-28T02:01:22.148Z,7.20
2023-01-28T02:02:22.172Z,7.50
2023-01-28T02:03:22.188Z,7.20
2023-01-28T02:04:22.119Z,7.30
2023-01-28T02:05:22.106Z,7.40
2023-01-28T02:06:22.118Z,7.30
2023-01-28T02:07:22.148Z,7.40
2023-01-28T02:08:22.111Z,7.20
2023-01-28T02:09:22.066Z,7.40
2023-01-28T02:10:22.058Z,7.40
2023-01-28T02:11:22.044Z,7.20
2023-01-28T02:12:22.050Z,7.60
2023-01-28T02:13:22.027Z,7.10
2023-01-28T02:14:30.707Z,7.50
2023-01-28T02:15:22.005Z,7.40
2023-01-28T02:16:22.075Z,7.60
2023-01-28T02:17:21.989Z,7.60
2023-01-28T02:18:21.983Z,7.30
2023-01-28T02:19:21.963Z,7.30
2023-01-28T02:20:21.958Z,7.30
2023-01-28T02:21:21.949Z,7.30
2023-01-28T02:22:21.957Z,7.80
2023-01-28T02:23:21.934Z,7.40
2023-01-28T02:24:21.954Z,7.30
2023-01-28T02:25:21.907Z,7.60
2023-01-28T02:26:21.895Z,7.30
2023-01-28T02:27:21.884Z,7.60
2023-01-28T02:28:21.883Z,7.30
2023-01-28T02:29:21.862Z,7.30
2023-01-28T02:30:21.856Z,7.60
2023-01-28T02:31:22.078Z,7.90
2023-01-28T02:32:21.835Z,7.70
2023-01-28T02:33:21.825Z,7.40
2023-01-28T02:34:21.812Z,6.80
2023-01-28T02:35:21.803Z,7.60
2023-01-28T02:36:21.799Z,6.90
2023-01-28T02:37:21.791Z,7.40
2023-01-28T02:38:21.794Z,7.40
2023-01-28T02:39:21.771Z,6.80
2023-01-28T02:40:22.165Z,7.50
2023-01-28T02:41:21.742Z,7.60
2023-01-28T02:42:21.736Z,8.10
2023-01-28T02:43:21.721Z,7.90
2023-01-28T02:44:21.716Z,7.70
2023-01-28T02:45:21.702Z,7.70
2023-01-28T02:46:21.737Z,7.90
2023-01-28T02:47:21.688Z,7.50
2023-01-28T02:48:21.678Z,7.70
2023-01-28T02:49:21.668Z,7.80
2023-01-28T02:50:21.652Z,7.80
2023-01-28T02:51:21.642Z,7.60
2023-01-28T02:52:21.630Z,8.10
2023-01-28T02:53:21.620Z,8.20
2023-01-28T02:54:21.653Z,8.30
2023-01-28T02:55:21.602Z,8.40
2023-01-28T02:56:21.596Z,8.60
2023-01-28T02:57:21.582Z,8.70
2023-01-28T02:58:21.576Z,9.20
2023-01-28T02:59:21.573Z,9.10
2023-01-28T03:00:21.549Z,9.30
2023-01-28T03:01:21.602Z,9.10
2023-01-28T03:02:21.623Z,9.40
2023-01-28T03:03:21.520Z,9.10
2023-01-28T03:04:21.508Z,9.50
2023-01-28T03:05:21.597Z,9.30
2023-01-28T03:06:21.487Z,9.40
2023-01-28T03:07:21.477Z,9.00
2023-01-28T03:08:21.471Z,9.50
2023-01-28T03:09:21.464Z,9.70
2023-01-28T03:10:21.468Z,9.10
2023-01-28T03:11:21.439Z,9.30
2023-01-28T03:12:21.430Z,9.70
2023-01-28T03:13:21.417Z,9.30
2023-01-28T03:14:21.407Z,9.30
2023-01-28T03:15:21.405Z,9.60
2023-01-28T03:16:21.392Z,10.30
2023-01-28T03:17:21.379Z,10.40
2023-01-28T03:18:21.366Z,10.00
2023-01-28T03:19:21.358Z,10.10
2023-01-28T03:20:21.348Z,10.70
2023-01-28T03:21:21.342Z,10.90
2023-01-28T03:22:21.332Z,10.80
2023-01-28T03:23:21.314Z,11.20
2023-01-28T03:24:21.380Z,11.60
2023-01-28T03:25:21.294Z,12.20
2023-01-28T03:26:21.304Z,13.00
2023-01-28T03:27:21.281Z,13.30
2023-01-28T03:28:21.262Z,13.90
2023-01-28T03:29:21.272Z,13.60
2023-01-28T03:30:21.245Z,13.90
2023-01-28T03:31:21.231Z,13.50
2023-01-28T03:32:21.295Z,15.20
2023-01-28T03:33:21.214Z,15.90
2023-01-28T03:34:21.201Z,15.90
2023-01-28T03:35:21.192Z,15.80
2023-01-28T03:36:21.189Z,16.30
2023-01-28T03:37:21.172Z,16.10
2023-01-28T03:38:21.162Z,16.30
2023-01-28T03:39:21.148Z,17.00
2023-01-28T03:40:21.143Z,17.20
2023-01-28T03:41:21.130Z,17.20
2023-01-28T03:42:21.138Z,16.40
2023-01-28T03:43:21.119Z,17.80
2023-01-28T03:44:21.095Z,16.80
2023-01-28T03:45:21.091Z,17.10
2023-01-28T03:46:21.103Z,17.70
2023-01-28T03:47:21.067Z,17.30
2023-01-28T03:48:21.060Z,17.70
2023-01-28T03:49:21.046Z,17.50
2023-01-28T03:50:21.033Z,17.40
2023-01-28T03:51:21.037Z,18.10
2023-01-28T03:52:21.015Z,17.70
2023-01-28T03:53:21.011Z,17.50
2023-01-28T03:54:20.996Z,16.80
2023-01-28T03:55:20.987Z,17.80
2023-01-28T03:56:20.972Z,17.90
2023-01-28T03:57:20.961Z,17.70
2023-01-28T03:58:21.026Z,17.90
2023-01-28T03:59:20.950Z,17.60
2023-01-28T04:00:20.929Z,18.10
2023-01-28T04:01:21.016Z,18.00
2023-01-28T04:02:20.908Z,17.40
2023-01-28T04:03:20.901Z,17.70
2023-01-28T04:04:20.890Z,17.90
2023-01-28T04:05:20.887Z,16.90
2023-01-28T04:06:20.876Z,17.70
2023-01-28T04:07:20.867Z,16.70
2023-01-28T04:08:20.849Z,16.70
2023-01-28T04:09:20.838Z,17.90
2023-01-28T04:10:20.823Z,16.90
2023-01-28T04:11:20.819Z,17.10
2023-01-28T04:12:20.805Z,16.70
2023-01-28T04:13:20.791Z,17.10
2023-01-28T04:14:20.801Z,17.30
2023-01-28T04:15:20.773Z,16.80
2023-01-28T04:16:20.828Z,17.00
2023-01-28T04:17:20.777Z,16.50
2023-01-28T04:18:20.750Z,15.60
2023-01-28T04:19:20.732Z,16.30
2023-01-28T04:20:20.722Z,16.40
2023-01-28T04:21:20.709Z,16.20
2023-01-28T04:22:20.696Z,16.60
2023-01-28T04:23:20.696Z,17.00
2023-01-28T04:24:20.710Z,16.00
2023-01-28T04:25:20.667Z,16.20
2023-01-28T04:26:20.654Z,16.20
2023-01-28T04:27:20.647Z,16.50
2023-01-28T04:28:20.637Z,16.40
2023-01-28T04:29:20.625Z,15.70
2023-01-28T04:30:20.792Z,15.50
2023-01-28T04:31:20.613Z,15.00
2023-01-28T04:32:20.592Z,15.40
2023-01-28T04:33:20.583Z,15.90
2023-01-28T04:34:20.599Z,15.60
2023-01-28T04:35:20.562Z,15.10
2023-01-28T04:36:20.549Z,15.10
2023-01-28T04:37:20.544Z,15.10
2023-01-28T04:38:20.536Z,14.90
2023-01-28T04:39:20.524Z,14.20
2023-01-28T04:40:20.512Z,15.00
2023-01-28T04:41:20.502Z,14.30
2023-01-28T04:42:20.489Z,15.30
2023-01-28T04:43:20.479Z,14.80
2023-01-28T04:44:20.464Z,14.70
2023-01-28T04:45:20.461Z,14.10
2023-01-28T04:46:20.537Z,14.20
2023-01-28T04:47:20.437Z,14.50
2023-01-28T04:48:20.426Z,15.10
2023-01-28T04:49:20.419Z,14.90
2023-01-28T04:50:20.402Z,14.80
2023-01-28T04:51:20.394Z,14.40
2023-01-28T04:52:20.381Z,14.20
2023-01-28T04:53:20.373Z,14.70
2023-01-28T04:54:20.365Z,14.50
2023-01-28T04:55:20.350Z,14.40
2023-01-28T04:56:20.339Z,14.60
2023-01-28T04:57:20.329Z,15.50
2023-01-28T04:58:20.325Z,14.70
2023-01-28T04:59:20.317Z,14.20
2023-01-28T05:00:20.293Z,14.30
2023-01-28T05:01:20.288Z,14.40
2023-01-28T05:02:20.371Z,13.90
2023-01-28T05:03:20.268Z,14.00
2023-01-28T05:04:20.260Z,14.30
2023-01-28T05:05:20.249Z,14.20
2023-01-28T05:06:20.233Z,13.80
2023-01-28T05:07:20.229Z,13.40
2023-01-28T05:08:20.224Z,13.90
2023-01-28T05:09:20.233Z,13.40
2023-01-28T05:10:20.195Z,13.30
2023-01-28T05:11:20.190Z,13.40
2023-01-28T05:12:20.173Z,13.70
2023-01-28T05:13:20.176Z,13.40
2023-01-28T05:14:20.155Z,14.00
2023-01-28T05:15:20.156Z,13.40
2023-01-28T05:16:20.138Z,14.30
2023-01-28T05:17:20.173Z,13.40
2023-01-28T05:18:20.132Z,14.30
2023-01-28T05:19:20.103Z,14.30
2023-01-28T05:20:20.091Z,13.20
2023-01-28T05:21:20.083Z,13.40
2023-01-28T05:22:20.067Z,13.80
2023-01-28T05:23:20.058Z,14.00
2023-01-28T05:24:20.093Z,13.50
2023-01-28T05:25:20.058Z,14.20
2023-01-28T05:26:20.030Z,14.50
2023-01-28T05:27:20.018Z,13.80
2023-01-28T05:28:20.007Z,13.40
2023-01-28T05:29:20.005Z,13.70
2023-01-28T05:30:19.985Z,15.60
2023-01-28T05:31:19.986Z,15.10
2023-01-28T05:32:19.997Z,15.60
2023-01-28T05:33:19.970Z,16.40
2023-01-28T05:34:20.031Z,15.90
2023-01-28T05:35:19.945Z,16.00
2023-01-28T05:36:19.929Z,15.60
2023-01-28T05:37:19.923Z,15.00
2023-01-28T05:38:19.935Z,13.90
2023-01-28T05:39:19.899Z,14.40
2023-01-28T05:40:19.886Z,15.20
2023-01-28T05:41:19.873Z,14.80
2023-01-28T05:42:19.866Z,14.20
2023-01-28T05:43:19.853Z,14.50
2023-01-28T05:44:19.843Z,14.50
2023-01-28T05:45:19.947Z,14.80
2023-01-28T05:46:19.825Z,14.90
2023-01-28T05:47:19.837Z,14.10
2023-01-28T05:48:19.803Z,14.40
2023-01-28T05:49:19.793Z,15.20
2023-01-28T05:50:19.797Z,13.70
2023-01-28T05:51:19.777Z,14.30
2023-01-28T05:52:19.770Z,14.40
2023-01-28T05:53:19.753Z,15.00
2023-01-28T05:54:19.738Z,14.50
2023-01-28T05:55:20.832Z,14.20
2023-01-28T05:56:19.717Z,14.80
2023-01-28T05:57:19.709Z,14.90
2023-01-28T05:58:19.692Z,15.50
2023-01-28T05:59:19.690Z,15.80
2023-01-28T06:00:19.718Z,15.20
2023-01-28T06:01:19.669Z,14.80
2023-01-28T06:02:19.697Z,15.30
2023-01-28T06:03:19.648Z,16.10
2023-01-28T06:04:19.635Z,15.90
2023-01-28T06:05:19.629Z,15.50
2023-01-28T06:06:19.636Z,15.30
2023-01-28T06:07:19.607Z,15.50
2023-01-28T06:08:19.593Z,16.20
2023-01-28T06:09:19.591Z,15.80
2023-01-28T06:10:19.575Z,14.90
2023-01-28T06:11:19.989Z,14.20
2023-01-28T06:12:19.555Z,15.10
2023-01-28T06:13:19.547Z,14.30
2023-01-28T06:14:19.545Z,14.40
2023-01-28T06:15:19.523Z,14.60
2023-01-28T06:16:19.515Z,13.70
2023-01-28T06:17:19.514Z,13.40
2023-01-28T06:18:19.490Z,13.80
2023-01-28T06:19:19.482Z,13.60
2023-01-28T06:20:19.480Z,12.70
2023-01-28T06:21:19.466Z,12.30
2023-01-28T06:22:19.471Z,13.20
2023-01-28T06:23:19.442Z,12.00
2023-01-28T06:24:19.545Z,12.00
2023-01-28T06:25:19.426Z,12.00
2023-01-28T06:26:19.410Z,11.30
2023-01-28T06:27:19.407Z,11.60
2023-01-28T06:28:19.390Z,11.40
2023-01-28T06:29:19.381Z,11.70
2023-01-28T06:30:19.366Z,11.00
2023-01-28T06:31:19.365Z,11.20
2023-01-28T06:32:19.379Z,11.60
2023-01-28T06:33:19.340Z,12.40
2023-01-28T06:34:19.325Z,12.30
2023-01-28T06:35:19.318Z,13.50
2023-01-28T06:36:19.310Z,12.70
2023-01-28T06:37:19.298Z,12.30
2023-01-28T06:38:19.303Z,12.40
2023-01-28T06:39:19.279Z,12.10
2023-01-28T06:40:19.267Z,12.50
2023-01-28T06:41:19.261Z,11.80
2023-01-28T06:42:19.245Z,11.30
2023-01-28T06:43:19.237Z,11.80
2023-01-28T06:44:19.230Z,12.30
2023-01-28T06:45:19.417Z,12.50
2023-01-28T06:46:19.248Z,12.90
2023-01-28T06:47:19.193Z,12.90
2023-01-28T06:48:19.182Z,12.10
2023-01-28T06:49:19.181Z,12.40
2023-01-28T06:50:19.160Z,11.80
2023-01-28T06:51:19.154Z,11.60
2023-01-28T06:52:19.142Z,12.00
2023-01-28T06:53:19.144Z,11.90
2023-01-28T06:54:19.142Z,12.60
2023-01-28T06:55:19.111Z,11.90
2023-01-28T06:56:19.097Z,12.50
2023-01-28T06:57:19.089Z,12.80
2023-01-28T06:58:19.078Z,12.80
2023-01-28T06:59:19.087Z,12.60
2023-01-28T07:00:19.924Z,12.30
2023-01-28T07:01:19.063Z,12.50
2023-01-28T07:02:19.041Z,13.10
2023-01-28T07:03:19.127Z,13.00
2023-01-28T07:04:19.022Z,13.30
2023-01-28T07:05:19.028Z,13.70
2023-01-28T07:06:18.998Z,13.40
2023-01-28T07:07:18.989Z,14.30
2023-01-28T07:08:18.980Z,15.00
2023-01-28T07:09:18.966Z,14.50
2023-01-28T07:10:18.973Z,15.50
2023-01-28T07:11:18.955Z,14.60
2023-01-28T07:12:18.936Z,13.90
2023-01-28T07:13:18.932Z,13.80
2023-01-28T07:14:18.916Z,13.60
2023-01-28T07:15:18.916Z,11.90
2023-01-28T07:16:18.893Z,12.20
2023-01-28T07:17:18.940Z,12.70
2023-01-28T07:18:18.876Z,12.50
2023-01-28T07:19:18.866Z,13.40
2023-01-28T07:20:19.085Z,13.20
2023-01-28T07:21:18.843Z,13.20
2023-01-28T07:22:18.878Z,13.10
2023-01-28T07:23:18.823Z,13.00
2023-01-28T07:24:18.942Z,13.40
2023-01-28T07:25:18.806Z,14.00
2023-01-28T07:26:18.846Z,14.50
2023-01-28T07:27:18.790Z,13.90
2023-01-28T07:28:18.773Z,14.60
2023-01-28T07:29:18.762Z,16.20
2023-01-28T07:30:18.750Z,15.70
2023-01-28T07:31:18.882Z,16.60
2023-01-28T07:32:18.733Z,16.70
2023-01-28T07:33:18.732Z,16.60
2023-01-28T07:34:18.712Z,15.80
2023-01-28T07:35:18.702Z,16.80
2023-01-28T07:36:18.694Z,16.20
2023-01-28T07:37:18.684Z,16.60
2023-01-28T07:38:18.692Z,16.60
2023-01-28T07:39:18.668Z,16.60
2023-01-28T07:40:18.649Z,17.40
2023-01-28T07:41:18.642Z,17.50
2023-01-28T07:42:18.644Z,18.10
2023-01-28T07:43:18.618Z,18.00
2023-01-28T07:44:18.612Z,18.00
2023-01-28T07:45:18.599Z,17.90
2023-01-28T07:46:18.594Z,18.30
2023-01-28T07:47:18.617Z,18.50
2023-01-28T07:48:18.576Z,18.10
2023-01-28T07:49:18.557Z,18.20
2023-01-28T07:50:18.751Z,17.50
2023-01-28T07:51:18.539Z,18.10
2023-01-28T07:52:18.530Z,17.40
2023-01-28T07:53:18.524Z,17.70
2023-01-28T07:54:18.512Z,18.40
2023-01-28T07:55:18.499Z,18.40
2023-01-28T07:56:18.489Z,18.50
2023-01-28T07:57:18.479Z,17.30
2023-01-28T07:58:18.487Z,17.10
2023-01-28T07:59:18.460Z,17.50
2023-01-28T08:00:18.461Z,17.50
2023-01-28T08:01:18.495Z,17.90
2023-01-28T08:02:18.458Z,17.90
2023-01-28T08:03:18.433Z,18.00
2023-01-28T08:04:18.469Z,18.50
2023-01-28T08:05:18.488Z,18.60
2023-01-28T08:06:18.390Z,18.40
2023-01-28T08:07:18.388Z,18.50
2023-01-28T08:08:18.376Z,19.20
2023-01-28T08:09:18.364Z,18.50
2023-01-28T08:10:18.378Z,18.90
2023-01-28T08:11:18.336Z,18.10
2023-01-28T08:12:18.335Z,18.50
2023-01-28T08:13:18.320Z,18.40
2023-01-28T08:14:18.333Z,18.90
2023-01-28T08:15:18.297Z,18.60
2023-01-28T08:16:18.342Z,18.50
2023-01-28T08:17:18.278Z,17.80
2023-01-28T08:18:18.286Z,17.90
2023-01-28T08:19:18.258Z,17.70
2023-01-28T08:20:18.434Z,17.40
2023-01-28T08:21:18.239Z,18.20
2023-01-28T08:22:18.228Z,17.60
2023-01-28T08:23:18.218Z,18.80
2023-01-28T08:24:18.340Z,18.50
2023-01-28T08:25:18.197Z,18.90
2023-01-28T08:26:18.191Z,18.70
2023-01-28T08:27:18.181Z,18.90
2023-01-28T08:28:18.173Z,19.30
2023-01-28T08:29:18.157Z,18.50
2023-01-28T08:30:18.301Z,18.00
2023-01-28T08:31:18.299Z,19.30
2023-01-28T08:32:18.134Z,19.10
2023-01-28T08:33:18.123Z,18.20
2023-01-28T08:34:18.119Z,18.70
2023-01-28T08:35:18.100Z,18.60
2023-01-28T08:36:18.091Z,18.40
2023-01-28T08:37:18.080Z,19.20
2023-01-28T08:38:18.077Z,18.60
2023-01-28T08:39:18.061Z,17.80
2023-01-28T08:40:18.351Z,17.60
2023-01-28T08:41:18.041Z,18.90
2023-01-28T08:42:18.032Z,18.10
2023-01-28T08:43:18.026Z,18.10
2023-01-28T08:44:18.015Z,19.20
2023-01-28T08:45:18.017Z,19.00
2023-01-28T08:46:18.055Z,18.60
2023-01-28T08:47:17.977Z,18.90
2023-01-28T08:48:17.978Z,19.00
2023-01-28T08:49:17.961Z,18.90
2023-01-28T08:50:17.956Z,18.40
2023-01-28T08:51:17.943Z,19.30
2023-01-28T08:52:17.933Z,20.10
2023-01-28T08:53:17.924Z,20.80
2023-01-28T08:54:17.911Z,19.60
2023-01-28T08:55:17.901Z,19.50
2023-01-28T08:56:17.896Z,20.80
2023-01-28T08:57:17.880Z,20.40
2023-01-28T08:58:17.872Z,20.90
2023-01-28T08:59:17.863Z,21.80
2023-01-28T09:00:18.004Z,21.20
2023-01-28T09:01:17.926Z,20.60
2023-01-28T09:02:30.624Z,21.20
2023-01-28T09:03:17.822Z,20.50
2023-01-28T09:04:17.816Z,20.70
2023-01-28T09:05:17.802Z,20.00
2023-01-28T09:06:17.798Z,20.40
2023-01-28T09:07:17.790Z,19.50
2023-01-28T09:08:17.781Z,19.40
2023-01-28T09:09:17.764Z,19.70
2023-01-28T09:10:18.283Z,18.40
2023-01-28T09:11:17.746Z,17.60
2023-01-28T09:12:17.737Z,17.30
2023-01-28T09:13:17.737Z,17.40
2023-01-28T09:14:17.731Z,17.70
2023-01-28T09:15:17.711Z,18.00
2023-01-28T09:16:17.782Z,17.60
2023-01-28T09:17:17.687Z,17.70
2023-01-28T09:18:17.700Z,17.90
2023-01-28T09:19:17.667Z,18.00
2023-01-28T09:20:18.066Z,17.50
2023-01-28T09:21:17.650Z,17.00
2023-01-28T09:22:17.642Z,17.70
2023-01-28T09:23:17.626Z,17.20
2023-01-28T09:24:17.678Z,17.30
2023-01-28T09:25:17.617Z,17.30
2023-01-28T09:26:17.604Z,16.70
2023-01-28T09:27:17.610Z,16.50
2023-01-28T09:28:17.580Z,17.20
2023-01-28T09:29:17.566Z,16.60
2023-01-28T09:30:18.071Z,15.00
2023-01-28T09:31:17.646Z,14.60
2023-01-28T09:32:17.535Z,14.30
2023-01-28T09:33:17.524Z,14.90
2023-01-28T09:34:17.537Z,14.60
2023-01-28T09:35:17.504Z,14.50
2023-01-28T09:36:17.496Z,14.20
2023-01-28T09:37:17.482Z,13.40
2023-01-28T09:38:17.480Z,13.50
2023-01-28T09:39:17.465Z,14.00
2023-01-28T09:40:17.678Z,13.70
2023-01-28T09:41:17.446Z,13.90
2023-01-28T09:42:17.434Z,13.40
2023-01-28T09:43:17.418Z,13.60
2023-01-28T09:44:17.415Z,14.00
2023-01-28T09:45:17.439Z,14.30
2023-01-28T09:46:17.501Z,14.10
2023-01-28T09:47:17.398Z,13.90
2023-01-28T09:48:17.371Z,13.30
2023-01-28T09:49:17.359Z,14.00
2023-01-28T09:50:17.829Z,13.60
2023-01-28T09:51:17.686Z,13.00
2023-01-28T09:52:17.328Z,14.00
2023-01-28T09:53:17.320Z,14.20
2023-01-28T09:54:17.310Z,14.30
2023-01-28T09:55:17.294Z,16.10
2023-01-28T09:56:17.288Z,15.80
2023-01-28T09:57:17.280Z,15.90
2023-01-28T09:58:17.268Z,15.00
2023-01-28T09:59:17.254Z,13.40
2023-01-28T10:00:17.710Z,13.80
2023-01-28T10:01:17.287Z,14.10
2023-01-28T10:02:17.238Z,13.60
2023-01-28T10:03:17.214Z,13.90
2023-01-28T10:04:17.207Z,13.10
2023-01-28T10:05:17.191Z,14.20
2023-01-28T10:06:17.223Z,13.60
2023-01-28T10:07:17.172Z,13.30
2023-01-28T10:08:17.161Z,13.20
2023-01-28T10:09:17.155Z,13.50
2023-01-28T10:10:17.957Z,13.10
2023-01-28T10:11:17.135Z,13.00
2023-01-28T10:12:17.127Z,13.20
2023-01-28T10:13:17.115Z,14.00
2023-01-28T10:14:17.100Z,13.50
2023-01-28T10:15:17.097Z,13.30
2023-01-28T10:16:17.081Z,13.50
2023-01-28T10:17:17.100Z,13.60
2023-01-28T10:18:18.509Z,13.70
2023-01-28T10:19:17.234Z,13.50
2023-01-28T10:20:17.459Z,13.60
2023-01-28T10:21:17.181Z,13.80
2023-01-28T10:22:17.033Z,13.90
2023-01-28T10:23:17.011Z,14.00
2023-01-28T10:24:17.172Z,14.30
2023-01-28T10:25:16.986Z,14.80
2023-01-28T10:26:16.984Z,14.60
2023-01-28T10:27:16.971Z,14.80
2023-01-28T10:28:16.954Z,14.30
2023-01-28T10:29:16.943Z,14.50
2023-01-28T10:30:17.315Z,14.80
2023-01-28T10:31:17.059Z,14.60
2023-01-28T10:32:17.265Z,14.50
2023-01-28T10:33:16.903Z,15.00
2023-01-28T10:34:19.056Z,15.10
2023-01-28T10:35:16.889Z,15.00
2023-01-28T10:36:16.877Z,15.40
2023-01-28T10:37:16.868Z,14.30
2023-01-28T10:38:16.871Z,14.30
2023-01-28T10:39:16.841Z,14.60
2023-01-28T10:40:17.255Z,14.40
2023-01-28T10:41:16.817Z,14.60
2023-01-28T10:42:16.807Z,15.00
2023-01-28T10:43:16.996Z,13.90
2023-01-28T10:44:16.796Z,13.80
2023-01-28T10:45:16.781Z,14.10
2023-01-28T10:46:16.824Z,14.30
2023-01-28T10:47:16.764Z,14.70
2023-01-28T10:48:16.995Z,14.70
2023-01-28T10:49:16.736Z,15.00
2023-01-28T10:50:17.169Z,14.70
2023-01-28T10:51:16.714Z,14.50
2023-01-28T10:52:16.712Z,14.00
2023-01-28T10:53:17.096Z,14.60
2023-01-28T10:54:16.706Z,14.20
2023-01-28T10:55:16.676Z,14.70
2023-01-28T10:56:16.666Z,15.10
2023-01-28T10:57:16.659Z,15.00
2023-01-28T10:58:16.644Z,14.40
2023-01-28T10:59:16.632Z,14.60
2023-01-28T11:00:16.878Z,14.70
2023-01-28T11:01:16.709Z,14.20
2023-01-28T11:02:16.688Z,14.40
2023-01-28T11:03:16.599Z,14.60
2023-01-28T11:04:16.592Z,15.10
2023-01-28T11:05:16.584Z,14.60
2023-01-28T11:06:16.562Z,14.60
2023-01-28T11:07:16.550Z,14.60
2023-01-28T11:08:16.542Z,15.00
2023-01-28T11:09:16.533Z,15.30
2023-01-28T11:10:16.874Z,15.60
2023-01-28T11:11:16.512Z,15.70
2023-01-28T11:12:16.499Z,15.20
2023-01-28T11:13:16.487Z,15.70
2023-01-28T11:14:16.478Z,15.50
2023-01-28T11:15:16.784Z,16.70
2023-01-28T11:16:16.462Z,15.60
2023-01-28T11:17:16.509Z,16.40
2023-01-28T11:18:16.438Z,15.00
2023-01-28T11:19:16.429Z,15.00
2023-01-28T11:20:16.720Z,15.30
2023-01-28T11:21:16.408Z,15.40
2023-01-28T11:22:16.399Z,15.50
2023-01-28T11:23:16.386Z,15.70
2023-01-28T11:24:16.461Z,16.30
2023-01-28T11:25:16.364Z,15.40
2023-01-28T11:26:16.375Z,15.80
2023-01-28T11:27:16.357Z,15.50
2023-01-28T11:28:16.340Z,15.60
2023-01-28T11:29:16.327Z,15.30
2023-01-28T11:30:16.682Z,15.80
2023-01-28T11:31:16.392Z,16.30
2023-01-28T11:32:16.301Z,16.20
2023-01-28T11:33:16.292Z,15.80
2023-01-28T11:34:16.287Z,16.50
2023-01-28T11:35:16.282Z,16.40
2023-01-28T11:36:16.259Z,16.50
2023-01-28T11:37:16.309Z,15.70
2023-01-28T11:38:16.241Z,15.90
2023-01-28T11:39:16.222Z,16.70
2023-01-28T11:40:19.015Z,17.10
2023-01-28T11:41:16.200Z,17.40
2023-01-28T11:42:16.207Z,16.50
2023-01-28T11:43:16.179Z,16.60
2023-01-28T11:44:16.171Z,17.00
2023-01-28T11:45:16.188Z,18.00
2023-01-28T11:46:16.204Z,16.60
2023-01-28T11:47:16.138Z,17.10
2023-01-28T11:48:16.129Z,17.40
2023-01-28T11:49:16.117Z,17.50
2023-01-28T11:50:16.417Z,17.60
2023-01-28T11:51:16.099Z,18.30
2023-01-28T11:52:16.086Z,18.00
2023-01-28T11:53:17.072Z,18.50
2023-01-28T11:54:16.062Z,18.50
2023-01-28T11:55:16.047Z,18.30
2023-01-28T11:56:16.042Z,18.00
2023-01-28T11:57:16.033Z,17.10
2023-01-28T11:58:16.286Z,17.50
2023-01-28T11:59:16.009Z,18.20
2023-01-28T12:00:16.983Z,17.60
2023-01-28T12:01:15.989Z,17.70
2023-01-28T12:02:15.990Z,17.40
2023-01-28T12:03:15.966Z,17.80
2023-01-28T12:04:15.961Z,18.80
2023-01-28T12:05:15.956Z,18.40
2023-01-28T12:06:15.935Z,19.20
2023-01-28T12:07:15.926Z,19.30
2023-01-28T12:08:15.913Z,19.00
2023-01-28T12:09:15.915Z,18.90
2023-01-28T12:10:16.318Z,17.50
2023-01-28T12:11:15.886Z,17.40
2023-01-28T12:12:15.873Z,17.60
2023-01-28T12:13:15.865Z,17.60
2023-01-28T12:14:15.867Z,17.00
2023-01-28T12:15:15.841Z,16.90
2023-01-28T12:16:15.874Z,17.10
2023-01-28T12:17:15.824Z,17.20
2023-01-28T12:18:15.819Z,16.60
2023-01-28T12:19:15.809Z,17.50
2023-01-28T12:20:16.280Z,17.00
2023-01-28T12:21:15.790Z,16.50
2023-01-28T12:22:15.770Z,16.90
2023-01-28T12:23:15.760Z,17.10
2023-01-28T12:24:15.804Z,16.70
2023-01-28T12:25:15.739Z,16.30
2023-01-28T12:26:15.728Z,15.50
2023-01-28T12:27:15.714Z,17.00
2023-01-28T12:28:15.702Z,16.70
2023-01-28T12:29:15.700Z,16.70
2023-01-28T12:30:16.124Z,18.00
2023-01-28T12:31:15.838Z,16.80
2023-01-28T12:32:15.671Z,17.00
2023-01-28T12:33:17.510Z,16.70
2023-01-28T12:34:15.662Z,17.30
2023-01-28T12:35:15.679Z,17.70
2023-01-28T12:36:15.623Z,17.70
2023-01-28T12:37:15.619Z,17.30
2023-01-28T12:38:15.685Z,17.20
2023-01-28T12:39:15.597Z,16.40
2023-01-28T12:40:16.137Z,16.50
2023-01-28T12:41:15.593Z,16.40
2023-01-28T12:42:15.554Z,16.20
2023-01-28T12:43:15.551Z,16.70
2023-01-28T12:44:15.536Z,17.60
2023-01-28T12:45:15.528Z,18.00
2023-01-28T12:46:15.531Z,17.50
2023-01-28T12:47:15.524Z,17.40
2023-01-28T12:48:15.511Z,17.50
2023-01-28T12:49:15.490Z,16.80
2023-01-28T12:50:15.990Z,17.40
2023-01-28T12:51:15.468Z,18.80
2023-01-28T12:52:15.456Z,17.60
2023-01-28T12:53:15.441Z,17.70
2023-01-28T12:54:15.432Z,18.00
2023-01-28T12:55:15.423Z,18.10
2023-01-28T12:56:15.412Z,18.10
2023-01-28T12:57:15.404Z,17.10
2023-01-28T12:58:15.388Z,17.70
2023-01-28T12:59:15.386Z,18.80